Airfield :
LOGIN :

Register | Disclaimer

   EN    FR    IT 

 










Legend :    VFR   Marginal VFR   IFR   Intensive IFR   Very Intensive IFR
Visi :
Ceiling :
>= 8 km
>= 3000ft
5 to 8 km
1000 to 3000 ft
1500m to 5 km
500 to 1000 ft
800 to 1500m
200 to 500 ft
< 800m
< 200 ft
Symbols :   Thunderstorms  Fog  Heavy snow  Heavy precipitations  Wind > 20 kt
SIGMETs :     Misc.  Thunderstorms  Icing  Turbulence  Mountain Waves  Volcanic Ashes






- Airport Elevation : 161 ft
- IATA code : TKU


EFTU - Turku

EXPIRED METARs :
  • 212250Z AUTO 22015KT 9999 -SHRA OVC048 05/01 Q0998
  • 212220Z AUTO 23017G27KT 9999 -RA NSC 05/01 Q0998 REUP
  • 212150Z AUTO 22014G25KT CAVOK 05/01 Q0998

TAF TAF EFTU
Valid from the 21 at 21:00 until the 22 at 21:00 UTC


212032Z 2121/2221 21012KT CAVOK
BECMG 2121/2123 21018G30KT
BECMG 2201/2203 BKN012
BECMG 2205/2207 4000 RA BKN007
TEMPO 2207/2215 21024G40KT 7000 -RA
BECMG 2215/2217 9999 -RA BKN015



MET'MAP, your aeronautical weather chart ! - Copyright ORBIFLY December 2007 - Disclaimer

ORBIFLY MET'MAP TEAM :

Programming & Development : Alexandra Zaïnal
Concept & original design : Baudouin d'Aumeries
Assistance for programming : Marc-Olivier Méhu
Technical & hardware support : Manuel Goepfert

Contact : metmap@orbifly.com




SOURCES & CREDITS :

   NOAA